Aviation Digital Data Service (ADDS)

Output produced by METARs form (1722 UTC 09 December 2016)
found at http://aviationweather.gov/adds/metars/
 
KGSO 091120Z 0912/1012 31007KT P6SM SKC 
     FM091500 32010G17KT P6SM SKC 
     FM100000 33004KT P6SM SKC